sensor_id;sensor_type;location;lat;lon;timestamp;temperature;humidity
11647;DHT22;5880;52.342;9.662;2022-07-10T00:00:40;18.70;50.20
11647;DHT22;5880;52.342;9.662;2022-07-10T00:03:06;18.70;50.20
11647;DHT22;5880;52.342;9.662;2022-07-10T00:05:32;18.60;50.10
11647;DHT22;5880;52.342;9.662;2022-07-10T00:08:01;18.60;50.90
11647;DHT22;5880;52.342;9.662;2022-07-10T00:10:27;18.70;50.30
11647;DHT22;5880;52.342;9.662;2022-07-10T00:12:54;18.60;50.30
11647;DHT22;5880;52.342;9.662;2022-07-10T00:15:21;18.60;50.40
11647;DHT22;5880;52.342;9.662;2022-07-10T00:17:47;18.60;50.40
11647;DHT22;5880;52.342;9.662;2022-07-10T00:20:14;18.60;50.50
11647;DHT22;5880;52.342;9.662;2022-07-10T00:22:40;18.60;50.50
11647;DHT22;5880;52.342;9.662;2022-07-10T00:25:10;18.60;50.40
11647;DHT22;5880;52.342;9.662;2022-07-10T00:27:37;18.60;50.50
11647;DHT22;5880;52.342;9.662;2022-07-10T00:30:03;18.50;50.40
11647;DHT22;5880;52.342;9.662;2022-07-10T00:32:30;18.50;50.50
11647;DHT22;5880;52.342;9.662;2022-07-10T00:34:55;18.50;50.40
11647;DHT22;5880;52.342;9.662;2022-07-10T00:37:21;18.60;50.50
11647;DHT22;5880;52.342;9.662;2022-07-10T00:39:47;18.50;50.40
11647;DHT22;5880;52.342;9.662;2022-07-10T00:42:14;18.40;50.40
11647;DHT22;5880;52.342;9.662;2022-07-10T00:44:41;18.40;50.60
11647;DHT22;5880;52.342;9.662;2022-07-10T00:47:09;18.40;50.70
11647;DHT22;5880;52.342;9.662;2022-07-10T00:49:37;18.40;50.80
11647;DHT22;5880;52.342;9.662;2022-07-10T00:52:07;18.40;51.00
11647;DHT22;5880;52.342;9.662;2022-07-10T00:54:35;18.40;51.00
11647;DHT22;5880;52.342;9.662;2022-07-10T00:57:04;18.40;50.90
11647;DHT22;5880;52.342;9.662;2022-07-10T00:59:32;18.40;51.00
11647;DHT22;5880;52.342;9.662;2022-07-10T01:01:58;18.30;50.90
11647;DHT22;5880;52.342;9.662;2022-07-10T01:04:24;18.30;50.90
11647;DHT22;5880;52.342;9.662;2022-07-10T01:06:50;18.40;51.00
11647;DHT22;5880;52.342;9.662;2022-07-10T01:09:16;18.30;50.80
11647;DHT22;5880;52.342;9.662;2022-07-10T01:11:42;18.30;50.80
11647;DHT22;5880;52.342;9.662;2022-07-10T01:14:08;18.30;51.00
11647;DHT22;5880;52.342;9.662;2022-07-10T01:16:34;18.30;51.00
11647;DHT22;5880;52.342;9.662;2022-07-10T01:19:00;18.30;51.10
11647;DHT22;5880;52.342;9.662;2022-07-10T01:21:32;18.30;51.00
11647;DHT22;5880;52.342;9.662;2022-07-10T01:24:00;18.20;51.10
11647;DHT22;5880;52.342;9.662;2022-07-10T01:26:30;18.20;50.90
11647;DHT22;5880;52.342;9.662;2022-07-10T01:28:56;18.30;51.00
11647;DHT22;5880;52.342;9.662;2022-07-10T01:31:26;18.30;51.00
11647;DHT22;5880;52.342;9.662;2022-07-10T01:33:52;18.20;51.30
11647;DHT22;5880;52.342;9.662;2022-07-10T01:36:21;18.10;51.10
11647;DHT22;5880;52.342;9.662;2022-07-10T01:38:48;18.20;51.20
11647;DHT22;5880;52.342;9.662;2022-07-10T01:41:16;18.10;51.30
11647;DHT22;5880;52.342;9.662;2022-07-10T01:43:42;18.10;51.30
11647;DHT22;5880;52.342;9.662;2022-07-10T01:46:10;18.00;51.30
11647;DHT22;5880;52.342;9.662;2022-07-10T01:48:40;18.20;51.50
11647;DHT22;5880;52.342;9.662;2022-07-10T01:51:08;18.00;51.40
11647;DHT22;5880;52.342;9.662;2022-07-10T01:53:35;18.00;51.50
11647;DHT22;5880;52.342;9.662;2022-07-10T01:56:04;18.00;51.50
11647;DHT22;5880;52.342;9.662;2022-07-10T01:58:32;18.00;51.80
11647;DHT22;5880;52.342;9.662;2022-07-10T02:00:58;18.00;51.70
11647;DHT22;5880;52.342;9.662;2022-07-10T02:03:24;18.00;51.80
11647;DHT22;5880;52.342;9.662;2022-07-10T02:06:08;18.00;51.90
11647;DHT22;5880;52.342;9.662;2022-07-10T02:08:34;18.00;51.90
11647;DHT22;5880;52.342;9.662;2022-07-10T02:11:00;18.00;52.00
11647;DHT22;5880;52.342;9.662;2022-07-10T02:13:25;18.00;52.00
11647;DHT22;5880;52.342;9.662;2022-07-10T02:15:53;18.00;52.00
11647;DHT22;5880;52.342;9.662;2022-07-10T02:18:20;18.00;52.10
11647;DHT22;5880;52.342;9.662;2022-07-10T02:20:46;17.90;52.10
11647;DHT22;5880;52.342;9.662;2022-07-10T02:23:12;17.90;52.20
11647;DHT22;5880;52.342;9.662;2022-07-10T02:25:38;17.90;52.30
11647;DHT22;5880;52.342;9.662;2022-07-10T02:28:04;18.00;52.30
11647;DHT22;5880;52.342;9.662;2022-07-10T02:30:30;18.00;52.40
11647;DHT22;5880;52.342;9.662;2022-07-10T02:32:56;18.00;52.30
11647;DHT22;5880;52.342;9.662;2022-07-10T02:35:22;18.00;53.10
11647;DHT22;5880;52.342;9.662;2022-07-10T02:37:47;18.00;52.30
11647;DHT22;5880;52.342;9.662;2022-07-10T02:40:13;18.00;52.40
11647;DHT22;5880;52.342;9.662;2022-07-10T02:42:38;18.00;52.50
11647;DHT22;5880;52.342;9.662;2022-07-10T02:45:04;17.90;52.50
11647;DHT22;5880;52.342;9.662;2022-07-10T02:47:30;17.90;52.50
11647;DHT22;5880;52.342;9.662;2022-07-10T02:49:56;17.90;52.70
11647;DHT22;5880;52.342;9.662;2022-07-10T02:52:22;17.80;52.70
11647;DHT22;5880;52.342;9.662;2022-07-10T02:54:47;17.80;52.90
11647;DHT22;5880;52.342;9.662;2022-07-10T02:57:13;17.80;53.00
11647;DHT22;5880;52.342;9.662;2022-07-10T02:59:39;17.80;53.20
11647;DHT22;5880;52.342;9.662;2022-07-10T03:02:05;17.80;53.30
11647;DHT22;5880;52.342;9.662;2022-07-10T03:04:30;17.80;53.40
11647;DHT22;5880;52.342;9.662;2022-07-10T03:06:56;17.80;53.60
11647;DHT22;5880;52.342;9.662;2022-07-10T03:09:22;17.70;53.80
11647;DHT22;5880;52.342;9.662;2022-07-10T03:11:47;17.80;54.00
11647;DHT22;5880;52.342;9.662;2022-07-10T03:14:13;17.70;54.00
11647;DHT22;5880;52.342;9.662;2022-07-10T03:16:39;17.70;54.00
11647;DHT22;5880;52.342;9.662;2022-07-10T03:19:04;17.70;54.00
11647;DHT22;5880;52.342;9.662;2022-07-10T03:21:30;17.70;54.00
11647;DHT22;5880;52.342;9.662;2022-07-10T03:23:56;17.70;54.10
11647;DHT22;5880;52.342;9.662;2022-07-10T03:26:22;17.70;54.30
11647;DHT22;5880;52.342;9.662;2022-07-10T03:28:47;17.80;54.40
11647;DHT22;5880;52.342;9.662;2022-07-10T03:31:13;17.70;54.40
11647;DHT22;5880;52.342;9.662;2022-07-10T03:33:39;17.60;54.30
11647;DHT22;5880;52.342;9.662;2022-07-10T03:36:05;17.70;54.50
11647;DHT22;5880;52.342;9.662;2022-07-10T03:38:31;17.70;54.60
11647;DHT22;5880;52.342;9.662;2022-07-10T03:40:57;17.30;54.40
11647;DHT22;5880;52.342;9.662;2022-07-10T03:43:23;17.70;54.80
11647;DHT22;5880;52.342;9.662;2022-07-10T03:45:50;17.70;54.90
11647;DHT22;5880;52.342;9.662;2022-07-10T03:48:16;17.70;54.90
11647;DHT22;5880;52.342;9.662;2022-07-10T03:50:42;17.70;54.90
11647;DHT22;5880;52.342;9.662;2022-07-10T03:53:08;17.70;54.90
11647;DHT22;5880;52.342;9.662;2022-07-10T03:55:34;17.70;55.00
11647;DHT22;5880;52.342;9.662;2022-07-10T03:58:01;17.70;55.10
11647;DHT22;5880;52.342;9.662;2022-07-10T04:00:30;17.70;55.30
11647;DHT22;5880;52.342;9.662;2022-07-10T04:03:02;17.70;55.20
11647;DHT22;5880;52.342;9.662;2022-07-10T04:05:29;17.70;55.40
11647;DHT22;5880;52.342;9.662;2022-07-10T04:07:56;17.70;55.30
11647;DHT22;5880;52.342;9.662;2022-07-10T04:10:23;17.70;55.40
11647;DHT22;5880;52.342;9.662;2022-07-10T04:12:50;17.70;55.30
11647;DHT22;5880;52.342;9.662;2022-07-10T04:15:17;17.70;55.40
11647;DHT22;5880;52.342;9.662;2022-07-10T04:17:43;17.70;55.40
11647;DHT22;5880;52.342;9.662;2022-07-10T04:20:09;17.70;55.50
11647;DHT22;5880;52.342;9.662;2022-07-10T04:22:36;17.70;55.60
11647;DHT22;5880;52.342;9.662;2022-07-10T04:25:03;17.70;55.50
11647;DHT22;5880;52.342;9.662;2022-07-10T04:27:29;17.70;55.70
11647;DHT22;5880;52.342;9.662;2022-07-10T04:29:55;17.70;55.50
11647;DHT22;5880;52.342;9.662;2022-07-10T04:32:21;17.70;55.70
11647;DHT22;5880;52.342;9.662;2022-07-10T04:34:47;17.70;55.50
11647;DHT22;5880;52.342;9.662;2022-07-10T04:37:13;17.80;55.40
11647;DHT22;5880;52.342;9.662;2022-07-10T04:39:39;17.70;55.40
11647;DHT22;5880;52.342;9.662;2022-07-10T04:42:06;17.70;55.60
11647;DHT22;5880;52.342;9.662;2022-07-10T04:44:33;17.70;55.60
11647;DHT22;5880;52.342;9.662;2022-07-10T04:46:59;17.70;55.60
11647;DHT22;5880;52.342;9.662;2022-07-10T04:49:25;17.70;55.60
11647;DHT22;5880;52.342;9.662;2022-07-10T04:51:51;17.70;55.50
11647;DHT22;5880;52.342;9.662;2022-07-10T04:54:17;17.80;55.40
11647;DHT22;5880;52.342;9.662;2022-07-10T04:56:43;17.70;55.40
11647;DHT22;5880;52.342;9.662;2022-07-10T04:59:09;17.70;55.40
11647;DHT22;5880;52.342;9.662;2022-07-10T05:01:35;17.70;55.70
11647;DHT22;5880;52.342;9.662;2022-07-10T05:04:02;17.70;55.80
11647;DHT22;5880;52.342;9.662;2022-07-10T05:06:29;17.70;55.80
11647;DHT22;5880;52.342;9.662;2022-07-10T05:08:54;17.70;55.80
11647;DHT22;5880;52.342;9.662;2022-07-10T05:11:21;17.80;55.90
11647;DHT22;5880;52.342;9.662;2022-07-10T05:13:48;17.80;55.90
11647;DHT22;5880;52.342;9.662;2022-07-10T05:16:14;17.80;55.90
11647;DHT22;5880;52.342;9.662;2022-07-10T05:18:41;17.80;56.00
11647;DHT22;5880;52.342;9.662;2022-07-10T05:21:07;17.80;56.00
11647;DHT22;5880;52.342;9.662;2022-07-10T05:23:33;17.80;56.00
11647;DHT22;5880;52.342;9.662;2022-07-10T05:25:59;17.90;56.00
11647;DHT22;5880;52.342;9.662;2022-07-10T05:28:25;17.90;56.20
11647;DHT22;5880;52.342;9.662;2022-07-10T05:30:51;17.80;56.10
11647;DHT22;5880;52.342;9.662;2022-07-10T05:33:17;17.90;56.20
11647;DHT22;5880;52.342;9.662;2022-07-10T05:35:43;17.90;56.20
11647;DHT22;5880;52.342;9.662;2022-07-10T05:38:09;18.00;56.10
11647;DHT22;5880;52.342;9.662;2022-07-10T05:40:34;18.00;56.00
11647;DHT22;5880;52.342;9.662;2022-07-10T05:43:00;17.90;56.00
11647;DHT22;5880;52.342;9.662;2022-07-10T05:45:26;18.00;56.20
11647;DHT22;5880;52.342;9.662;2022-07-10T05:47:52;18.00;56.30
11647;DHT22;5880;52.342;9.662;2022-07-10T05:50:18;18.00;56.30
11647;DHT22;5880;52.342;9.662;2022-07-10T05:52:43;18.10;56.20
11647;DHT22;5880;52.342;9.662;2022-07-10T05:55:10;18.00;56.10
11647;DHT22;5880;52.342;9.662;2022-07-10T05:57:36;18.00;56.20
11647;DHT22;5880;52.342;9.662;2022-07-10T06:00:03;18.10;56.30
11647;DHT22;5880;52.342;9.662;2022-07-10T06:02:30;18.10;56.20
11647;DHT22;5880;52.342;9.662;2022-07-10T06:04:56;18.10;56.10
11647;DHT22;5880;52.342;9.662;2022-07-10T06:07:22;18.20;56.00
11647;DHT22;5880;52.342;9.662;2022-07-10T06:09:48;18.20;56.00
11647;DHT22;5880;52.342;9.662;2022-07-10T06:12:13;18.20;56.00
11647;DHT22;5880;52.342;9.662;2022-07-10T06:14:41;18.20;55.90
11647;DHT22;5880;52.342;9.662;2022-07-10T06:17:07;18.20;56.00
11647;DHT22;5880;52.342;9.662;2022-07-10T06:19:32;18.30;56.30
11647;DHT22;5880;52.342;9.662;2022-07-10T06:21:58;18.30;56.40
11647;DHT22;5880;52.342;9.662;2022-07-10T06:24:44;18.30;56.50
11647;DHT22;5880;52.342;9.662;2022-07-10T06:27:10;18.40;56.60
11647;DHT22;5880;52.342;9.662;2022-07-10T06:29:36;18.40;56.50
11647;DHT22;5880;52.342;9.662;2022-07-10T06:32:02;18.50;56.40
11647;DHT22;5880;52.342;9.662;2022-07-10T06:34:28;18.60;56.30
11647;DHT22;5880;52.342;9.662;2022-07-10T06:36:53;18.90;56.20
11647;DHT22;5880;52.342;9.662;2022-07-10T06:39:20;18.60;55.90
11647;DHT22;5880;52.342;9.662;2022-07-10T06:41:45;18.60;55.80
11647;DHT22;5880;52.342;9.662;2022-07-10T06:44:11;18.80;56.00
11647;DHT22;5880;52.342;9.662;2022-07-10T06:46:37;18.70;56.10
11647;DHT22;5880;52.342;9.662;2022-07-10T06:49:03;18.70;55.90
11647;DHT22;5880;52.342;9.662;2022-07-10T06:51:29;18.80;55.80
11647;DHT22;5880;52.342;9.662;2022-07-10T06:53:55;18.80;55.60
11647;DHT22;5880;52.342;9.662;2022-07-10T06:56:22;18.80;55.60
11647;DHT22;5880;52.342;9.662;2022-07-10T06:58:48;18.90;55.50
11647;DHT22;5880;52.342;9.662;2022-07-10T07:01:14;18.90;55.60
11647;DHT22;5880;52.342;9.662;2022-07-10T07:03:39;18.90;55.70
11647;DHT22;5880;52.342;9.662;2022-07-10T07:06:05;18.90;55.80
11647;DHT22;5880;52.342;9.662;2022-07-10T07:08:31;19.00;55.30
11647;DHT22;5880;52.342;9.662;2022-07-10T07:10:57;19.10;55.10
11647;DHT22;5880;52.342;9.662;2022-07-10T07:13:23;19.40;54.90
11647;DHT22;5880;52.342;9.662;2022-07-10T07:15:49;19.10;54.80
11647;DHT22;5880;52.342;9.662;2022-07-10T07:18:25;19.10;54.60
11647;DHT22;5880;52.342;9.662;2022-07-10T07:20:58;19.00;54.50
11647;DHT22;5880;52.342;9.662;2022-07-10T07:23:43;19.10;55.30
11647;DHT22;5880;52.342;9.662;2022-07-10T07:26:08;19.10;55.00
11647;DHT22;5880;52.342;9.662;2022-07-10T07:28:34;19.10;54.20
11647;DHT22;5880;52.342;9.662;2022-07-10T07:31:00;19.20;54.20
11647;DHT22;5880;52.342;9.662;2022-07-10T07:33:25;19.20;54.40
11647;DHT22;5880;52.342;9.662;2022-07-10T07:35:51;19.30;54.60
11647;DHT22;5880;52.342;9.662;2022-07-10T07:38:17;19.30;54.30
11647;DHT22;5880;52.342;9.662;2022-07-10T07:40:43;19.30;54.30
11647;DHT22;5880;52.342;9.662;2022-07-10T07:43:09;19.40;54.10
11647;DHT22;5880;52.342;9.662;2022-07-10T07:45:34;19.50;53.80
11647;DHT22;5880;52.342;9.662;2022-07-10T07:48:01;19.50;53.50
11647;DHT22;5880;52.342;9.662;2022-07-10T07:50:35;19.50;53.40
11647;DHT22;5880;52.342;9.662;2022-07-10T07:53:03;19.50;53.10
11647;DHT22;5880;52.342;9.662;2022-07-10T07:55:31;19.60;53.30
11647;DHT22;5880;52.342;9.662;2022-07-10T07:57:58;19.70;53.30
11647;DHT22;5880;52.342;9.662;2022-07-10T08:00:26;19.60;53.30
11647;DHT22;5880;52.342;9.662;2022-07-10T08:02:54;19.70;52.80
11647;DHT22;5880;52.342;9.662;2022-07-10T08:05:21;19.80;52.80
11647;DHT22;5880;52.342;9.662;2022-07-10T08:07:53;19.90;52.70
11647;DHT22;5880;52.342;9.662;2022-07-10T08:10:22;19.90;53.40
11647;DHT22;5880;52.342;9.662;2022-07-10T08:12:51;20.00;52.40
11647;DHT22;5880;52.342;9.662;2022-07-10T08:15:18;20.00;52.70
11647;DHT22;5880;52.342;9.662;2022-07-10T08:17:48;20.10;52.70
11647;DHT22;5880;52.342;9.662;2022-07-10T08:20:18;20.20;52.40
11647;DHT22;5880;52.342;9.662;2022-07-10T08:22:45;20.20;51.80
11647;DHT22;5880;52.342;9.662;2022-07-10T08:25:11;20.20;51.70
11647;DHT22;5880;52.342;9.662;2022-07-10T08:27:37;20.30;51.50
11647;DHT22;5880;52.342;9.662;2022-07-10T08:30:05;20.30;51.30
11647;DHT22;5880;52.342;9.662;2022-07-10T08:32:32;20.40;50.50
11647;DHT22;5880;52.342;9.662;2022-07-10T08:34:58;20.50;50.30
11647;DHT22;5880;52.342;9.662;2022-07-10T08:37:26;20.40;49.90
11647;DHT22;5880;52.342;9.662;2022-07-10T08:39:52;20.50;50.00
11647;DHT22;5880;52.342;9.662;2022-07-10T08:42:18;20.50;50.20
11647;DHT22;5880;52.342;9.662;2022-07-10T08:44:46;20.50;49.90
11647;DHT22;5880;52.342;9.662;2022-07-10T08:47:12;20.60;50.30
11647;DHT22;5880;52.342;9.662;2022-07-10T08:49:45;20.70;50.10
11647;DHT22;5880;52.342;9.662;2022-07-10T08:52:28;20.70;49.40
11647;DHT22;5880;52.342;9.662;2022-07-10T08:54:59;20.80;48.40
11647;DHT22;5880;52.342;9.662;2022-07-10T08:57:26;20.80;48.90
11647;DHT22;5880;52.342;9.662;2022-07-10T08:59:52;20.80;48.80
11647;DHT22;5880;52.342;9.662;2022-07-10T09:02:19;20.80;49.00
11647;DHT22;5880;52.342;9.662;2022-07-10T09:04:45;20.80;49.10
11647;DHT22;5880;52.342;9.662;2022-07-10T09:07:11;20.70;49.20
11647;DHT22;5880;52.342;9.662;2022-07-10T09:12:22;20.70;49.20
11647;DHT22;5880;52.342;9.662;2022-07-10T09:14:50;20.70;49.60
11647;DHT22;5880;52.342;9.662;2022-07-10T09:17:20;20.70;50.00
11647;DHT22;5880;52.342;9.662;2022-07-10T09:19:46;20.70;49.50
11647;DHT22;5880;52.342;9.662;2022-07-10T09:22:12;20.70;49.40
11647;DHT22;5880;52.342;9.662;2022-07-10T09:24:46;20.70;49.40
11647;DHT22;5880;52.342;9.662;2022-07-10T09:27:14;20.70;49.20
11647;DHT22;5880;52.342;9.662;2022-07-10T09:29:52;20.70;49.40
11647;DHT22;5880;52.342;9.662;2022-07-10T09:32:23;20.70;49.10
11647;DHT22;5880;52.342;9.662;2022-07-10T09:34:50;20.70;49.30
11647;DHT22;5880;52.342;9.662;2022-07-10T09:37:39;20.80;48.70
11647;DHT22;5880;52.342;9.662;2022-07-10T09:40:10;20.80;48.40
11647;DHT22;5880;52.342;9.662;2022-07-10T09:42:37;20.70;48.50
11647;DHT22;5880;52.342;9.662;2022-07-10T09:55:33;20.60;48.70
11647;DHT22;5880;52.342;9.662;2022-07-10T09:58:08;20.60;49.00
11647;DHT22;5880;52.342;9.662;2022-07-10T10:00:36;20.60;48.80
11647;DHT22;5880;52.342;9.662;2022-07-10T10:03:05;20.70;49.10
11647;DHT22;5880;52.342;9.662;2022-07-10T10:05:37;20.80;49.20
11647;DHT22;5880;52.342;9.662;2022-07-10T10:08:28;20.90;48.40
11647;DHT22;5880;52.342;9.662;2022-07-10T10:11:05;21.00;48.80
11647;DHT22;5880;52.342;9.662;2022-07-10T10:13:34;21.10;48.90
11647;DHT22;5880;52.342;9.662;2022-07-10T10:16:02;21.20;48.70
11647;DHT22;5880;52.342;9.662;2022-07-10T10:18:28;21.30;48.10
11647;DHT22;5880;52.342;9.662;2022-07-10T10:20:55;21.40;47.80
11647;DHT22;5880;52.342;9.662;2022-07-10T10:23:24;21.40;47.20
11647;DHT22;5880;52.342;9.662;2022-07-10T10:25:55;21.40;47.10
11647;DHT22;5880;52.342;9.662;2022-07-10T10:28:23;21.40;46.70
11647;DHT22;5880;52.342;9.662;2022-07-10T10:30:52;21.50;47.40
11647;DHT22;5880;52.342;9.662;2022-07-10T10:35:58;21.60;47.30
11647;DHT22;5880;52.342;9.662;2022-07-10T10:41:28;21.80;46.50
11647;DHT22;5880;52.342;9.662;2022-07-10T10:49:19;21.90;45.90
11647;DHT22;5880;52.342;9.662;2022-07-10T10:52:08;22.00;46.10
11647;DHT22;5880;52.342;9.662;2022-07-10T10:59:58;22.00;45.40
11647;DHT22;5880;52.342;9.662;2022-07-10T11:02:33;22.10;46.30
11647;DHT22;5880;52.342;9.662;2022-07-10T11:08:03;22.20;45.10
11647;DHT22;5880;52.342;9.662;2022-07-10T11:10:43;22.30;43.90
11647;DHT22;5880;52.342;9.662;2022-07-10T11:13:14;22.40;44.60
11647;DHT22;5880;52.342;9.662;2022-07-10T11:15:43;22.50;44.70
11647;DHT22;5880;52.342;9.662;2022-07-10T11:18:15;22.50;44.60
11647;DHT22;5880;52.342;9.662;2022-07-10T11:20:44;22.60;43.40
11647;DHT22;5880;52.342;9.662;2022-07-10T11:23:43;22.60;43.60
11647;DHT22;5880;52.342;9.662;2022-07-10T11:26:24;22.60;42.50
11647;DHT22;5880;52.342;9.662;2022-07-10T11:29:05;22.70;43.00
11647;DHT22;5880;52.342;9.662;2022-07-10T11:31:32;22.60;42.70
11647;DHT22;5880;52.342;9.662;2022-07-10T11:34:10;22.60;42.80
11647;DHT22;5880;52.342;9.662;2022-07-10T11:36:38;22.60;42.50
11647;DHT22;5880;52.342;9.662;2022-07-10T11:39:06;22.60;42.00
11647;DHT22;5880;52.342;9.662;2022-07-10T11:41:41;22.60;42.00
11647;DHT22;5880;52.342;9.662;2022-07-10T11:44:13;22.50;42.20
11647;DHT22;5880;52.342;9.662;2022-07-10T11:46:41;22.50;42.00
11647;DHT22;5880;52.342;9.662;2022-07-10T11:49:09;22.50;43.50
11647;DHT22;5880;52.342;9.662;2022-07-10T11:51:37;22.50;42.80
11647;DHT22;5880;52.342;9.662;2022-07-10T11:54:05;22.50;42.70
11647;DHT22;5880;52.342;9.662;2022-07-10T11:56:40;22.50;42.60
11647;DHT22;5880;52.342;9.662;2022-07-10T11:59:12;22.50;43.10
11647;DHT22;5880;52.342;9.662;2022-07-10T12:01:49;22.50;42.80
11647;DHT22;5880;52.342;9.662;2022-07-10T12:04:18;22.50;43.20
11647;DHT22;5880;52.342;9.662;2022-07-10T12:06:47;22.50;43.50
11647;DHT22;5880;52.342;9.662;2022-07-10T12:09:16;22.50;43.90
11647;DHT22;5880;52.342;9.662;2022-07-10T12:11:45;22.50;43.80
11647;DHT22;5880;52.342;9.662;2022-07-10T12:14:25;22.50;44.00
11647;DHT22;5880;52.342;9.662;2022-07-10T12:16:52;22.50;43.80
11647;DHT22;5880;52.342;9.662;2022-07-10T12:19:21;22.50;43.60
11647;DHT22;5880;52.342;9.662;2022-07-10T12:21:48;22.50;43.30
11647;DHT22;5880;52.342;9.662;2022-07-10T12:24:18;22.70;43.60
11647;DHT22;5880;52.342;9.662;2022-07-10T12:26:47;22.50;43.50
11647;DHT22;5880;52.342;9.662;2022-07-10T12:29:20;22.50;43.50
11647;DHT22;5880;52.342;9.662;2022-07-10T12:31:57;22.40;43.90
11647;DHT22;5880;52.342;9.662;2022-07-10T12:34:33;22.50;44.10
11647;DHT22;5880;52.342;9.662;2022-07-10T12:37:07;22.40;43.60
11647;DHT22;5880;52.342;9.662;2022-07-10T12:39:38;22.50;44.00
11647;DHT22;5880;52.342;9.662;2022-07-10T12:42:11;22.50;44.00
11647;DHT22;5880;52.342;9.662;2022-07-10T12:44:42;22.40;44.30
11647;DHT22;5880;52.342;9.662;2022-07-10T12:47:11;22.40;44.00
11647;DHT22;5880;52.342;9.662;2022-07-10T12:49:52;22.40;44.40
11647;DHT22;5880;52.342;9.662;2022-07-10T12:52:27;22.40;44.00
11647;DHT22;5880;52.342;9.662;2022-07-10T12:57:32;22.50;44.50
11647;DHT22;5880;52.342;9.662;2022-07-10T13:00:10;22.40;44.40
11647;DHT22;5880;52.342;9.662;2022-07-10T13:02:38;22.40;44.40
11647;DHT22;5880;52.342;9.662;2022-07-10T13:05:04;22.40;44.40
11647;DHT22;5880;52.342;9.662;2022-07-10T13:07:32;22.40;44.40
11647;DHT22;5880;52.342;9.662;2022-07-10T13:10:00;22.30;44.20
11647;DHT22;5880;52.342;9.662;2022-07-10T13:12:27;22.30;44.30
11647;DHT22;5880;52.342;9.662;2022-07-10T13:14:53;22.20;44.30
11647;DHT22;5880;52.342;9.662;2022-07-10T13:17:19;22.20;44.30
11647;DHT22;5880;52.342;9.662;2022-07-10T13:19:45;22.10;44.40
11647;DHT22;5880;52.342;9.662;2022-07-10T13:22:10;22.00;44.30
11647;DHT22;5880;52.342;9.662;2022-07-10T13:24:36;21.90;44.50
11647;DHT22;5880;52.342;9.662;2022-07-10T13:27:02;21.80;44.50
11647;DHT22;5880;52.342;9.662;2022-07-10T13:29:28;21.80;45.00
11647;DHT22;5880;52.342;9.662;2022-07-10T13:31:53;21.70;45.70
11647;DHT22;5880;52.342;9.662;2022-07-10T13:34:19;21.60;46.40
11647;DHT22;5880;52.342;9.662;2022-07-10T13:36:45;21.50;46.70
11647;DHT22;5880;52.342;9.662;2022-07-10T13:39:10;21.50;47.30
11647;DHT22;5880;52.342;9.662;2022-07-10T13:41:36;21.40;47.50
11647;DHT22;5880;52.342;9.662;2022-07-10T13:44:02;21.30;47.60
11647;DHT22;5880;52.342;9.662;2022-07-10T13:46:28;21.40;48.00
11647;DHT22;5880;52.342;9.662;2022-07-10T13:48:53;21.30;48.00
11647;DHT22;5880;52.342;9.662;2022-07-10T13:51:19;21.30;48.00
11647;DHT22;5880;52.342;9.662;2022-07-10T13:53:44;21.40;48.20
11647;DHT22;5880;52.342;9.662;2022-07-10T13:56:10;21.30;48.20
11647;DHT22;5880;52.342;9.662;2022-07-10T13:58:36;21.40;48.00
11647;DHT22;5880;52.342;9.662;2022-07-10T14:01:03;21.40;48.00
11647;DHT22;5880;52.342;9.662;2022-07-10T14:03:30;21.40;48.00
11647;DHT22;5880;52.342;9.662;2022-07-10T14:05:57;21.50;48.10
11647;DHT22;5880;52.342;9.662;2022-07-10T14:08:23;21.60;47.80
11647;DHT22;5880;52.342;9.662;2022-07-10T14:10:49;21.50;48.10
11647;DHT22;5880;52.342;9.662;2022-07-10T14:13:15;21.50;47.80
11647;DHT22;5880;52.342;9.662;2022-07-10T14:15:42;21.50;47.40
11647;DHT22;5880;52.342;9.662;2022-07-10T14:18:10;21.50;47.30
11647;DHT22;5880;52.342;9.662;2022-07-10T14:20:37;21.60;47.50
11647;DHT22;5880;52.342;9.662;2022-07-10T14:23:21;21.50;47.30
11647;DHT22;5880;52.342;9.662;2022-07-10T14:25:47;21.60;47.30
11647;DHT22;5880;52.342;9.662;2022-07-10T14:28:13;21.60;47.20
11647;DHT22;5880;52.342;9.662;2022-07-10T14:30:42;21.60;47.00
11647;DHT22;5880;52.342;9.662;2022-07-10T14:33:08;21.60;47.10
11647;DHT22;5880;52.342;9.662;2022-07-10T14:35:34;21.60;47.00
11647;DHT22;5880;52.342;9.662;2022-07-10T14:38:00;21.70;46.90
11647;DHT22;5880;52.342;9.662;2022-07-10T14:40:26;21.60;46.60
11647;DHT22;5880;52.342;9.662;2022-07-10T14:42:51;21.70;46.70
11647;DHT22;5880;52.342;9.662;2022-07-10T14:45:17;21.60;46.70
11647;DHT22;5880;52.342;9.662;2022-07-10T14:47:43;21.70;47.00
11647;DHT22;5880;52.342;9.662;2022-07-10T14:50:09;21.70;47.00
11647;DHT22;5880;52.342;9.662;2022-07-10T14:52:35;21.70;46.90
11647;DHT22;5880;52.342;9.662;2022-07-10T14:55:03;21.70;46.80
11647;DHT22;5880;52.342;9.662;2022-07-10T14:57:31;21.80;47.00
11647;DHT22;5880;52.342;9.662;2022-07-10T14:59:57;21.80;46.80
11647;DHT22;5880;52.342;9.662;2022-07-10T15:02:23;21.80;46.80
11647;DHT22;5880;52.342;9.662;2022-07-10T15:04:48;21.90;46.90
11647;DHT22;5880;52.342;9.662;2022-07-10T15:07:14;21.90;46.80
11647;DHT22;5880;52.342;9.662;2022-07-10T15:09:43;21.90;46.60
11647;DHT22;5880;52.342;9.662;2022-07-10T15:12:09;21.90;47.20
11647;DHT22;5880;52.342;9.662;2022-07-10T15:14:36;21.90;46.30
11647;DHT22;5880;52.342;9.662;2022-07-10T15:17:02;21.90;46.20
11647;DHT22;5880;52.342;9.662;2022-07-10T15:19:28;22.00;46.10
11647;DHT22;5880;52.342;9.662;2022-07-10T15:21:54;21.90;46.00
11647;DHT22;5880;52.342;9.662;2022-07-10T15:24:20;21.90;45.80
11647;DHT22;5880;52.342;9.662;2022-07-10T15:26:46;21.90;45.90
11647;DHT22;5880;52.342;9.662;2022-07-10T15:29:12;21.90;45.90
11647;DHT22;5880;52.342;9.662;2022-07-10T15:31:38;21.80;45.70
11647;DHT22;5880;52.342;9.662;2022-07-10T15:34:09;21.70;46.10
11647;DHT22;5880;52.342;9.662;2022-07-10T15:36:38;21.70;46.70
11647;DHT22;5880;52.342;9.662;2022-07-10T15:39:03;21.60;46.70
11647;DHT22;5880;52.342;9.662;2022-07-10T15:41:29;21.50;47.10
11647;DHT22;5880;52.342;9.662;2022-07-10T15:43:55;21.50;47.50
11647;DHT22;5880;52.342;9.662;2022-07-10T15:46:20;21.40;47.70
11647;DHT22;5880;52.342;9.662;2022-07-10T15:48:46;21.40;48.00
11647;DHT22;5880;52.342;9.662;2022-07-10T15:51:12;21.40;48.00
11647;DHT22;5880;52.342;9.662;2022-07-10T15:53:40;21.30;48.40
11647;DHT22;5880;52.342;9.662;2022-07-10T15:56:06;21.30;48.50
11647;DHT22;5880;52.342;9.662;2022-07-10T15:58:32;21.30;48.50
11647;DHT22;5880;52.342;9.662;2022-07-10T16:00:58;21.30;48.50
11647;DHT22;5880;52.342;9.662;2022-07-10T16:03:24;21.40;48.50
11647;DHT22;5880;52.342;9.662;2022-07-10T16:05:50;21.30;48.60
11647;DHT22;5880;52.342;9.662;2022-07-10T16:08:16;21.30;48.70
11647;DHT22;5880;52.342;9.662;2022-07-10T16:10:47;21.30;48.70
11647;DHT22;5880;52.342;9.662;2022-07-10T16:13:14;21.30;48.90
11647;DHT22;5880;52.342;9.662;2022-07-10T16:15:39;21.20;48.90
11647;DHT22;5880;52.342;9.662;2022-07-10T16:18:05;21.30;49.10
11647;DHT22;5880;52.342;9.662;2022-07-10T16:20:31;21.30;49.20
11647;DHT22;5880;52.342;9.662;2022-07-10T16:23:00;21.30;49.20